Sunday, October 22, 2017, 5:06 PM EDT
Back to Local

KTHV, York Airport

Location: Spring Grove, PA, United States Lat: 39.917
Local Time: 5:06 PM EDT (21:06 GMT) Lon: -76.883
Time Zone: US/Eastern Elev: 478 ft

Show me the last for .
Show Decoded

2017-10-22 16:53 METAR KTHV 222053Z AUTO 14010KT 10SM CLR 21/08 A3030 RMK AO2 SLP264 T02110083
                 56012 $ =
2017-10-22 15:53 METAR KTHV 221953Z AUTO 15008KT 10SM CLR 23/09 A3031 RMK AO2 SLP264 T02280094 $
                 =
2017-10-22 14:53 METAR KTHV 221853Z AUTO 14005KT 10SM CLR 24/12 A3032 RMK AO2 SLP270 T02390117 $
                 =
2017-10-22 13:53 METAR KTHV 221753Z AUTO VRB05KT 10SM CLR 23/11 A3034 RMK AO2 SLP275 T02280111
                 10233 20056 56016 $ =
2017-10-22 12:53 METAR KTHV 221653Z AUTO 14009KT 10SM CLR 23/12 A3035 RMK AO2 SLP279 T02280117 $
                 =
2017-10-22 11:53 METAR KTHV 221553Z AUTO 00000KT 10SM CLR 21/12 A3037 RMK AO2 SLP286 T02110117 $
                 =
2017-10-22 10:53 METAR KTHV 221453Z AUTO 09003KT 10SM CLR 18/11 A3039 RMK AO2 SLP292 T01780106
                 58002 $ =
2017-10-21 23:53 METAR KTHV 220353Z AUTO 00000KT 10SM CLR 09/07 A3035 RMK AO2 SLP280 T00890067 $
                 =
2017-10-21 22:53 METAR KTHV 220253Z AUTO 00000KT 10SM CLR 10/07 A3036 RMK AO2 SLP283 T01000067 $
                 =
2017-10-21 21:53 METAR KTHV 220153Z AUTO 11003KT 10SM CLR 11/07 A3035 RMK AO2 SLP280 T01060072 =
2017-10-21 20:53 METAR KTHV 220053Z AUTO 00000KT 10SM CLR 12/08 A3035 RMK AO2 SLP282 T01170083 =
2017-10-21 19:53 METAR KTHV 212353Z AUTO 19003KT 10SM CLR 17/08 A3035 RMK AO2 SLP280 T01670078
                 10244 20133 53009 =
2017-10-21 18:53 METAR KTHV 212253Z AUTO 00000KT 10SM CLR 18/08 A3034 RMK AO2 SLP276 T01780078 =
2017-10-21 17:53 METAR KTHV 212153Z AUTO 00000KT 10SM CLR 18/09 A3033 RMK AO2 SLP273 T01830094 =

Support USWX by starting your Amazon purchase here.